sensor_id;sensor_type;location;lat;lon;timestamp;P1;durP1;ratioP1;P2;durP2;ratioP2
46158;SDS011;31888;44.512;26.104;2023-11-21T00:02:18;86.78;;;46.67;;
46158;SDS011;31888;44.512;26.104;2023-11-21T00:04:42;90.35;;;45.05;;
46158;SDS011;31888;44.512;26.104;2023-11-21T00:07:07;90.95;;;46.95;;
46158;SDS011;31888;44.512;26.104;2023-11-21T00:09:31;84.25;;;42.88;;
46158;SDS011;31888;44.512;26.104;2023-11-21T00:11:56;89.55;;;44.25;;
46158;SDS011;31888;44.512;26.104;2023-11-21T00:14:21;88.70;;;45.92;;
46158;SDS011;31888;44.512;26.104;2023-11-21T00:16:45;87.20;;;48.65;;
46158;SDS011;31888;44.512;26.104;2023-11-21T00:19:09;91.47;;;48.33;;
46158;SDS011;31888;44.512;26.104;2023-11-21T00:21:33;95.90;;;49.58;;
46158;SDS011;31888;44.512;26.104;2023-11-21T00:23:56;92.35;;;49.03;;
46158;SDS011;31888;44.512;26.104;2023-11-21T00:26:20;99.13;;;49.53;;
46158;SDS011;31888;44.512;26.104;2023-11-21T00:28:56;83.70;;;46.00;;
46158;SDS011;31888;44.512;26.104;2023-11-21T00:31:20;91.68;;;47.38;;
46158;SDS011;31888;44.512;26.104;2023-11-21T00:33:44;96.63;;;50.28;;
46158;SDS011;31888;44.512;26.104;2023-11-21T00:36:08;91.88;;;46.38;;
46158;SDS011;31888;44.512;26.104;2023-11-21T00:38:32;93.60;;;47.50;;
46158;SDS011;31888;44.512;26.104;2023-11-21T00:40:56;97.35;;;49.13;;
46158;SDS011;31888;44.512;26.104;2023-11-21T00:43:20;91.43;;;47.88;;
46158;SDS011;31888;44.512;26.104;2023-11-21T00:45:46;85.78;;;43.92;;
46158;SDS011;31888;44.512;26.104;2023-11-21T00:48:11;93.88;;;48.03;;
46158;SDS011;31888;44.512;26.104;2023-11-21T00:50:35;103.88;;;50.85;;
46158;SDS011;31888;44.512;26.104;2023-11-21T00:52:59;102.22;;;51.42;;
46158;SDS011;31888;44.512;26.104;2023-11-21T00:55:24;108.88;;;53.33;;
46158;SDS011;31888;44.512;26.104;2023-11-21T00:57:48;98.82;;;51.05;;
46158;SDS011;31888;44.512;26.104;2023-11-21T01:00:12;96.03;;;50.90;;
46158;SDS011;31888;44.512;26.104;2023-11-21T01:02:40;94.65;;;48.08;;
46158;SDS011;31888;44.512;26.104;2023-11-21T01:05:05;96.25;;;47.47;;
46158;SDS011;31888;44.512;26.104;2023-11-21T01:07:30;95.50;;;51.97;;
46158;SDS011;31888;44.512;26.104;2023-11-21T01:09:54;91.63;;;48.85;;
46158;SDS011;31888;44.512;26.104;2023-11-21T01:12:18;99.43;;;51.58;;
46158;SDS011;31888;44.512;26.104;2023-11-21T01:14:42;93.85;;;46.50;;
46158;SDS011;31888;44.512;26.104;2023-11-21T01:17:07;101.47;;;50.92;;
46158;SDS011;31888;44.512;26.104;2023-11-21T01:19:32;101.05;;;51.50;;
46158;SDS011;31888;44.512;26.104;2023-11-21T01:21:56;101.50;;;53.25;;
46158;SDS011;31888;44.512;26.104;2023-11-21T01:24:21;108.40;;;56.00;;
46158;SDS011;31888;44.512;26.104;2023-11-21T01:26:44;108.47;;;52.83;;
46158;SDS011;31888;44.512;26.104;2023-11-21T01:29:08;98.18;;;52.08;;
46158;SDS011;31888;44.512;26.104;2023-11-21T01:31:32;110.72;;;55.40;;
46158;SDS011;31888;44.512;26.104;2023-11-21T01:33:56;106.10;;;53.88;;
46158;SDS011;31888;44.512;26.104;2023-11-21T01:36:21;118.05;;;59.08;;
46158;SDS011;31888;44.512;26.104;2023-11-21T01:38:45;109.53;;;57.10;;
46158;SDS011;31888;44.512;26.104;2023-11-21T01:41:10;103.03;;;56.53;;
46158;SDS011;31888;44.512;26.104;2023-11-21T01:43:35;101.38;;;54.05;;
46158;SDS011;31888;44.512;26.104;2023-11-21T01:45:59;106.22;;;56.53;;
46158;SDS011;31888;44.512;26.104;2023-11-21T01:48:23;110.93;;;57.58;;
46158;SDS011;31888;44.512;26.104;2023-11-21T01:50:47;104.97;;;54.22;;
46158;SDS011;31888;44.512;26.104;2023-11-21T01:53:13;112.65;;;56.60;;
46158;SDS011;31888;44.512;26.104;2023-11-21T01:55:37;113.50;;;58.83;;
46158;SDS011;31888;44.512;26.104;2023-11-21T01:58:03;113.55;;;58.95;;
46158;SDS011;31888;44.512;26.104;2023-11-21T02:00:27;111.90;;;59.35;;
46158;SDS011;31888;44.512;26.104;2023-11-21T02:03:11;119.63;;;58.47;;
46158;SDS011;31888;44.512;26.104;2023-11-21T02:05:36;114.15;;;59.15;;
46158;SDS011;31888;44.512;26.104;2023-11-21T02:08:00;122.78;;;60.40;;
46158;SDS011;31888;44.512;26.104;2023-11-21T02:10:26;120.20;;;61.58;;
46158;SDS011;31888;44.512;26.104;2023-11-21T02:12:53;125.20;;;63.58;;
46158;SDS011;31888;44.512;26.104;2023-11-21T02:15:19;122.38;;;62.70;;
46158;SDS011;31888;44.512;26.104;2023-11-21T02:17:43;126.35;;;64.07;;
46158;SDS011;31888;44.512;26.104;2023-11-21T02:20:08;120.75;;;65.00;;
46158;SDS011;31888;44.512;26.104;2023-11-21T02:22:39;116.18;;;62.60;;
46158;SDS011;31888;44.512;26.104;2023-11-21T02:25:06;119.88;;;62.97;;
46158;SDS011;31888;44.512;26.104;2023-11-21T02:27:31;116.65;;;60.10;;
46158;SDS011;31888;44.512;26.104;2023-11-21T02:29:56;118.47;;;63.08;;
46158;SDS011;31888;44.512;26.104;2023-11-21T02:32:20;112.85;;;60.05;;
46158;SDS011;31888;44.512;26.104;2023-11-21T02:34:48;125.15;;;63.00;;
46158;SDS011;31888;44.512;26.104;2023-11-21T02:37:12;124.68;;;64.22;;
46158;SDS011;31888;44.512;26.104;2023-11-21T02:39:37;127.55;;;64.40;;
46158;SDS011;31888;44.512;26.104;2023-11-21T02:42:03;131.43;;;61.17;;
46158;SDS011;31888;44.512;26.104;2023-11-21T02:44:27;122.97;;;63.65;;
46158;SDS011;31888;44.512;26.104;2023-11-21T02:46:51;123.63;;;63.25;;
46158;SDS011;31888;44.512;26.104;2023-11-21T02:49:15;113.40;;;60.95;;
46158;SDS011;31888;44.512;26.104;2023-11-21T02:51:41;113.40;;;59.20;;
46158;SDS011;31888;44.512;26.104;2023-11-21T02:54:06;106.50;;;57.05;;
46158;SDS011;31888;44.512;26.104;2023-11-21T02:56:30;114.97;;;58.42;;
46158;SDS011;31888;44.512;26.104;2023-11-21T02:58:59;115.70;;;59.25;;
46158;SDS011;31888;44.512;26.104;2023-11-21T03:01:24;116.90;;;58.08;;
46158;SDS011;31888;44.512;26.104;2023-11-21T03:03:50;115.32;;;58.10;;
46158;SDS011;31888;44.512;26.104;2023-11-21T03:06:17;111.93;;;58.67;;
46158;SDS011;31888;44.512;26.104;2023-11-21T03:08:41;120.80;;;60.05;;
46158;SDS011;31888;44.512;26.104;2023-11-21T03:11:05;117.13;;;60.15;;
46158;SDS011;31888;44.512;26.104;2023-11-21T03:13:30;123.75;;;60.90;;
46158;SDS011;31888;44.512;26.104;2023-11-21T03:15:56;115.35;;;55.78;;
46158;SDS011;31888;44.512;26.104;2023-11-21T03:18:22;100.65;;;52.47;;
46158;SDS011;31888;44.512;26.104;2023-11-21T03:20:46;99.85;;;52.00;;
46158;SDS011;31888;44.512;26.104;2023-11-21T03:23:10;98.80;;;51.42;;
46158;SDS011;31888;44.512;26.104;2023-11-21T03:25:34;96.03;;;51.17;;
46158;SDS011;31888;44.512;26.104;2023-11-21T03:27:58;107.07;;;52.03;;
46158;SDS011;31888;44.512;26.104;2023-11-21T03:30:22;92.90;;;50.25;;
46158;SDS011;31888;44.512;26.104;2023-11-21T03:32:50;98.18;;;50.85;;
46158;SDS011;31888;44.512;26.104;2023-11-21T03:35:14;94.85;;;49.33;;
46158;SDS011;31888;44.512;26.104;2023-11-21T03:37:38;91.05;;;46.90;;
46158;SDS011;31888;44.512;26.104;2023-11-21T03:40:07;93.20;;;45.17;;
46158;SDS011;31888;44.512;26.104;2023-11-21T03:42:32;91.80;;;44.50;;
46158;SDS011;31888;44.512;26.104;2023-11-21T03:44:56;88.38;;;44.75;;
46158;SDS011;31888;44.512;26.104;2023-11-21T03:47:20;85.45;;;44.60;;
46158;SDS011;31888;44.512;26.104;2023-11-21T03:49:46;84.07;;;43.13;;
46158;SDS011;31888;44.512;26.104;2023-11-21T03:52:10;80.13;;;41.55;;
46158;SDS011;31888;44.512;26.104;2023-11-21T03:54:34;82.13;;;41.10;;
46158;SDS011;31888;44.512;26.104;2023-11-21T03:57:01;73.68;;;38.25;;
46158;SDS011;31888;44.512;26.104;2023-11-21T03:59:28;76.88;;;39.58;;
46158;SDS011;31888;44.512;26.104;2023-11-21T04:01:55;63.95;;;35.17;;
46158;SDS011;31888;44.512;26.104;2023-11-21T04:04:22;67.60;;;35.03;;
46158;SDS011;31888;44.512;26.104;2023-11-21T04:06:50;68.13;;;32.40;;
46158;SDS011;31888;44.512;26.104;2023-11-21T04:09:15;64.47;;;32.30;;
46158;SDS011;31888;44.512;26.104;2023-11-21T04:11:41;61.45;;;32.60;;
46158;SDS011;31888;44.512;26.104;2023-11-21T04:14:07;54.78;;;29.65;;
46158;SDS011;31888;44.512;26.104;2023-11-21T04:16:32;60.75;;;29.45;;
46158;SDS011;31888;44.512;26.104;2023-11-21T04:18:57;53.47;;;29.27;;
46158;SDS011;31888;44.512;26.104;2023-11-21T04:21:22;49.13;;;26.02;;
46158;SDS011;31888;44.512;26.104;2023-11-21T04:23:51;48.03;;;25.55;;
46158;SDS011;31888;44.512;26.104;2023-11-21T04:26:17;46.50;;;23.63;;
46158;SDS011;31888;44.512;26.104;2023-11-21T04:28:45;48.50;;;24.73;;
46158;SDS011;31888;44.512;26.104;2023-11-21T04:31:17;41.70;;;23.25;;
46158;SDS011;31888;44.512;26.104;2023-11-21T04:33:44;47.25;;;22.98;;
46158;SDS011;31888;44.512;26.104;2023-11-21T04:36:08;43.05;;;21.63;;
46158;SDS011;31888;44.512;26.104;2023-11-21T04:38:32;46.15;;;22.23;;
46158;SDS011;31888;44.512;26.104;2023-11-21T04:40:58;44.47;;;23.02;;
46158;SDS011;31888;44.512;26.104;2023-11-21T04:43:26;42.78;;;22.38;;
46158;SDS011;31888;44.512;26.104;2023-11-21T04:45:50;62.38;;;32.85;;
46158;SDS011;31888;44.512;26.104;2023-11-21T04:48:14;38.53;;;20.60;;
46158;SDS011;31888;44.512;26.104;2023-11-21T04:50:38;34.92;;;19.40;;
46158;SDS011;31888;44.512;26.104;2023-11-21T04:53:02;36.97;;;19.02;;
46158;SDS011;31888;44.512;26.104;2023-11-21T04:55:27;33.50;;;18.23;;
46158;SDS011;31888;44.512;26.104;2023-11-21T04:57:52;35.85;;;19.58;;
46158;SDS011;31888;44.512;26.104;2023-11-21T05:00:17;37.72;;;18.38;;
46158;SDS011;31888;44.512;26.104;2023-11-21T05:02:41;31.52;;;17.55;;
46158;SDS011;31888;44.512;26.104;2023-11-21T05:05:07;36.47;;;17.45;;
46158;SDS011;31888;44.512;26.104;2023-11-21T05:07:32;36.30;;;18.98;;
46158;SDS011;31888;44.512;26.104;2023-11-21T05:10:00;37.40;;;17.92;;
46158;SDS011;31888;44.512;26.104;2023-11-21T05:12:25;32.38;;;17.52;;
46158;SDS011;31888;44.512;26.104;2023-11-21T05:14:53;34.58;;;16.80;;
46158;SDS011;31888;44.512;26.104;2023-11-21T05:17:20;35.45;;;17.85;;
46158;SDS011;31888;44.512;26.104;2023-11-21T05:19:44;34.38;;;17.85;;
46158;SDS011;31888;44.512;26.104;2023-11-21T05:22:11;40.22;;;18.73;;
46158;SDS011;31888;44.512;26.104;2023-11-21T05:24:35;36.28;;;18.60;;
46158;SDS011;31888;44.512;26.104;2023-11-21T05:27:00;36.75;;;18.95;;
46158;SDS011;31888;44.512;26.104;2023-11-21T05:29:24;33.28;;;19.35;;
46158;SDS011;31888;44.512;26.104;2023-11-21T05:31:50;36.45;;;18.25;;
46158;SDS011;31888;44.512;26.104;2023-11-21T05:34:15;35.10;;;17.80;;
46158;SDS011;31888;44.512;26.104;2023-11-21T05:36:40;34.42;;;17.80;;
46158;SDS011;31888;44.512;26.104;2023-11-21T05:39:06;39.38;;;17.17;;
46158;SDS011;31888;44.512;26.104;2023-11-21T05:41:29;31.00;;;16.60;;
46158;SDS011;31888;44.512;26.104;2023-11-21T05:43:53;34.40;;;16.65;;
46158;SDS011;31888;44.512;26.104;2023-11-21T05:46:17;34.83;;;17.70;;
46158;SDS011;31888;44.512;26.104;2023-11-21T05:48:43;29.17;;;16.73;;
46158;SDS011;31888;44.512;26.104;2023-11-21T05:51:07;35.25;;;15.95;;
46158;SDS011;31888;44.512;26.104;2023-11-21T05:53:36;32.50;;;16.52;;
46158;SDS011;31888;44.512;26.104;2023-11-21T05:56:14;32.05;;;16.63;;
46158;SDS011;31888;44.512;26.104;2023-11-21T05:58:53;29.35;;;15.80;;
46158;SDS011;31888;44.512;26.104;2023-11-21T06:01:17;26.98;;;15.15;;
46158;SDS011;31888;44.512;26.104;2023-11-21T06:03:43;27.67;;;15.13;;
46158;SDS011;31888;44.512;26.104;2023-11-21T06:06:08;27.92;;;15.93;;
46158;SDS011;31888;44.512;26.104;2023-11-21T06:08:32;29.20;;;14.32;;
46158;SDS011;31888;44.512;26.104;2023-11-21T06:10:55;32.53;;;15.15;;
46158;SDS011;31888;44.512;26.104;2023-11-21T06:13:22;29.17;;;14.80;;
46158;SDS011;31888;44.512;26.104;2023-11-21T06:15:48;34.63;;;14.05;;
46158;SDS011;31888;44.512;26.104;2023-11-21T06:18:12;31.65;;;15.48;;
46158;SDS011;31888;44.512;26.104;2023-11-21T06:20:38;32.58;;;15.85;;
46158;SDS011;31888;44.512;26.104;2023-11-21T06:23:02;30.00;;;15.35;;
46158;SDS011;31888;44.512;26.104;2023-11-21T06:25:29;31.45;;;16.55;;
46158;SDS011;31888;44.512;26.104;2023-11-21T06:28:04;28.52;;;15.30;;
46158;SDS011;31888;44.512;26.104;2023-11-21T06:30:30;26.00;;;15.85;;
46158;SDS011;31888;44.512;26.104;2023-11-21T06:32:54;27.75;;;15.50;;
46158;SDS011;31888;44.512;26.104;2023-11-21T06:35:27;29.77;;;16.63;;
46158;SDS011;31888;44.512;26.104;2023-11-21T06:38:01;28.65;;;14.35;;
46158;SDS011;31888;44.512;26.104;2023-11-21T06:40:25;29.60;;;14.88;;
46158;SDS011;31888;44.512;26.104;2023-11-21T06:42:49;29.48;;;15.23;;
46158;SDS011;31888;44.512;26.104;2023-11-21T06:45:18;25.52;;;15.63;;
46158;SDS011;31888;44.512;26.104;2023-11-21T06:48:15;29.10;;;14.80;;
46158;SDS011;31888;44.512;26.104;2023-11-21T06:50:42;28.65;;;15.07;;
46158;SDS011;31888;44.512;26.104;2023-11-21T06:53:08;26.75;;;14.30;;
46158;SDS011;31888;44.512;26.104;2023-11-21T06:55:50;21.83;;;13.07;;
46158;SDS011;31888;44.512;26.104;2023-11-21T06:58:42;24.35;;;13.77;;
46158;SDS011;31888;44.512;26.104;2023-11-21T07:01:44;19.88;;;12.90;;
46158;SDS011;31888;44.512;26.104;2023-11-21T07:04:08;24.35;;;12.25;;
46158;SDS011;31888;44.512;26.104;2023-11-21T07:06:32;26.45;;;13.38;;
46158;SDS011;31888;44.512;26.104;2023-11-21T07:08:58;22.88;;;14.15;;
46158;SDS011;31888;44.512;26.104;2023-11-21T07:11:23;20.48;;;12.57;;
46158;SDS011;31888;44.512;26.104;2023-11-21T07:13:47;23.02;;;13.60;;
46158;SDS011;31888;44.512;26.104;2023-11-21T07:16:11;22.83;;;12.00;;
46158;SDS011;31888;44.512;26.104;2023-11-21T07:18:34;22.20;;;12.93;;
46158;SDS011;31888;44.512;26.104;2023-11-21T07:20:58;24.67;;;13.32;;
46158;SDS011;31888;44.512;26.104;2023-11-21T07:23:22;22.08;;;13.32;;
46158;SDS011;31888;44.512;26.104;2023-11-21T07:25:48;22.17;;;13.98;;
46158;SDS011;31888;44.512;26.104;2023-11-21T07:28:12;21.52;;;12.93;;
46158;SDS011;31888;44.512;26.104;2023-11-21T07:30:36;27.27;;;15.27;;
46158;SDS011;31888;44.512;26.104;2023-11-21T07:33:00;25.67;;;15.75;;
46158;SDS011;31888;44.512;26.104;2023-11-21T07:35:24;27.17;;;15.35;;
46158;SDS011;31888;44.512;26.104;2023-11-21T07:37:48;27.23;;;15.75;;
46158;SDS011;31888;44.512;26.104;2023-11-21T07:40:12;23.10;;;14.68;;
46158;SDS011;31888;44.512;26.104;2023-11-21T07:42:38;38.15;;;14.93;;
46158;SDS011;31888;44.512;26.104;2023-11-21T07:45:02;26.65;;;13.52;;
46158;SDS011;31888;44.512;26.104;2023-11-21T07:47:26;26.40;;;13.93;;
46158;SDS011;31888;44.512;26.104;2023-11-21T07:49:50;25.63;;;13.27;;
46158;SDS011;31888;44.512;26.104;2023-11-21T07:52:14;27.77;;;15.25;;
46158;SDS011;31888;44.512;26.104;2023-11-21T07:54:39;27.70;;;14.52;;
46158;SDS011;31888;44.512;26.104;2023-11-21T07:57:03;23.80;;;15.35;;
46158;SDS011;31888;44.512;26.104;2023-11-21T07:59:28;21.95;;;14.88;;
46158;SDS011;31888;44.512;26.104;2023-11-21T08:01:52;23.45;;;14.13;;
46158;SDS011;31888;44.512;26.104;2023-11-21T08:04:17;25.42;;;15.45;;
46158;SDS011;31888;44.512;26.104;2023-11-21T08:06:41;27.60;;;14.90;;
46158;SDS011;31888;44.512;26.104;2023-11-21T08:09:05;25.75;;;14.55;;
46158;SDS011;31888;44.512;26.104;2023-11-21T08:11:30;23.90;;;14.63;;
46158;SDS011;31888;44.512;26.104;2023-11-21T08:13:55;25.20;;;13.82;;
46158;SDS011;31888;44.512;26.104;2023-11-21T08:16:20;24.52;;;13.52;;
46158;SDS011;31888;44.512;26.104;2023-11-21T08:18:46;22.13;;;13.40;;
46158;SDS011;31888;44.512;26.104;2023-11-21T08:21:12;31.50;;;14.95;;
46158;SDS011;31888;44.512;26.104;2023-11-21T08:23:35;23.48;;;13.88;;
46158;SDS011;31888;44.512;26.104;2023-11-21T08:25:59;24.58;;;13.45;;
46158;SDS011;31888;44.512;26.104;2023-11-21T08:28:27;20.70;;;13.07;;
46158;SDS011;31888;44.512;26.104;2023-11-21T08:30:52;19.08;;;12.85;;
46158;SDS011;31888;44.512;26.104;2023-11-21T08:33:18;28.77;;;13.95;;
46158;SDS011;31888;44.512;26.104;2023-11-21T08:35:41;33.13;;;14.27;;
46158;SDS011;31888;44.512;26.104;2023-11-21T08:38:05;23.33;;;12.55;;
46158;SDS011;31888;44.512;26.104;2023-11-21T08:40:31;20.30;;;12.90;;
46158;SDS011;31888;44.512;26.104;2023-11-21T08:42:55;21.73;;;12.73;;
46158;SDS011;31888;44.512;26.104;2023-11-21T08:45:21;22.05;;;12.23;;
46158;SDS011;31888;44.512;26.104;2023-11-21T08:47:45;20.08;;;12.38;;
46158;SDS011;31888;44.512;26.104;2023-11-21T08:50:11;25.50;;;14.75;;
46158;SDS011;31888;44.512;26.104;2023-11-21T08:52:35;26.35;;;15.00;;
46158;SDS011;31888;44.512;26.104;2023-11-21T08:54:59;21.88;;;12.90;;
46158;SDS011;31888;44.512;26.104;2023-11-21T08:57:29;24.70;;;13.18;;
46158;SDS011;31888;44.512;26.104;2023-11-21T08:59:53;23.10;;;11.55;;
46158;SDS011;31888;44.512;26.104;2023-11-21T09:02:18;22.70;;;11.95;;
46158;SDS011;31888;44.512;26.104;2023-11-21T09:04:42;23.55;;;12.43;;
46158;SDS011;31888;44.512;26.104;2023-11-21T09:07:10;17.73;;;11.82;;
46158;SDS011;31888;44.512;26.104;2023-11-21T09:09:34;18.15;;;10.90;;
46158;SDS011;31888;44.512;26.104;2023-11-21T09:11:58;23.45;;;12.27;;
46158;SDS011;31888;44.512;26.104;2023-11-21T09:14:23;19.05;;;12.23;;
46158;SDS011;31888;44.512;26.104;2023-11-21T09:16:49;19.52;;;12.25;;
46158;SDS011;31888;44.512;26.104;2023-11-21T09:19:22;18.42;;;11.55;;
46158;SDS011;31888;44.512;26.104;2023-11-21T09:22:32;18.73;;;11.73;;
46158;SDS011;31888;44.512;26.104;2023-11-21T09:24:56;24.23;;;12.75;;
46158;SDS011;31888;44.512;26.104;2023-11-21T09:27:20;21.85;;;13.13;;
46158;SDS011;31888;44.512;26.104;2023-11-21T09:29:44;19.40;;;11.45;;
46158;SDS011;31888;44.512;26.104;2023-11-21T09:32:09;19.60;;;11.18;;
46158;SDS011;31888;44.512;26.104;2023-11-21T09:34:37;19.95;;;11.75;;
46158;SDS011;31888;44.512;26.104;2023-11-21T09:37:01;17.30;;;12.13;;
46158;SDS011;31888;44.512;26.104;2023-11-21T09:39:29;17.58;;;11.40;;
46158;SDS011;31888;44.512;26.104;2023-11-21T09:41:55;18.73;;;11.52;;
46158;SDS011;31888;44.512;26.104;2023-11-21T09:44:29;21.13;;;13.23;;
46158;SDS011;31888;44.512;26.104;2023-11-21T09:47:04;19.13;;;11.43;;
46158;SDS011;31888;44.512;26.104;2023-11-21T09:49:32;24.60;;;10.90;;
46158;SDS011;31888;44.512;26.104;2023-11-21T09:51:58;18.10;;;10.15;;
46158;SDS011;31888;44.512;26.104;2023-11-21T09:54:27;16.15;;;10.35;;
46158;SDS011;31888;44.512;26.104;2023-11-21T09:56:53;18.98;;;9.95;;
46158;SDS011;31888;44.512;26.104;2023-11-21T09:59:17;15.65;;;10.07;;
46158;SDS011;31888;44.512;26.104;2023-11-21T10:01:43;18.33;;;10.45;;
46158;SDS011;31888;44.512;26.104;2023-11-21T10:04:06;23.35;;;10.25;;
46158;SDS011;31888;44.512;26.104;2023-11-21T10:06:33;16.15;;;9.95;;
46158;SDS011;31888;44.512;26.104;2023-11-21T10:08:58;16.20;;;8.93;;
46158;SDS011;31888;44.512;26.104;2023-11-21T10:11:24;21.02;;;9.18;;
46158;SDS011;31888;44.512;26.104;2023-11-21T10:13:49;18.75;;;9.90;;
46158;SDS011;31888;44.512;26.104;2023-11-21T10:16:17;15.25;;;9.13;;
46158;SDS011;31888;44.512;26.104;2023-11-21T10:18:44;14.60;;;8.30;;
46158;SDS011;31888;44.512;26.104;2023-11-21T10:21:08;14.57;;;9.02;;
46158;SDS011;31888;44.512;26.104;2023-11-21T10:23:33;14.48;;;9.68;;
46158;SDS011;31888;44.512;26.104;2023-11-21T10:25:56;18.65;;;10.38;;
46158;SDS011;31888;44.512;26.104;2023-11-21T10:28:37;18.42;;;9.73;;
46158;SDS011;31888;44.512;26.104;2023-11-21T10:31:01;14.98;;;9.23;;
46158;SDS011;31888;44.512;26.104;2023-11-21T10:33:28;14.02;;;8.43;;
46158;SDS011;31888;44.512;26.104;2023-11-21T10:35:52;22.58;;;10.00;;
46158;SDS011;31888;44.512;26.104;2023-11-21T10:38:17;15.25;;;10.25;;
46158;SDS011;31888;44.512;26.104;2023-11-21T10:40:43;18.60;;;9.00;;
46158;SDS011;31888;44.512;26.104;2023-11-21T10:43:09;23.25;;;9.13;;
46158;SDS011;31888;44.512;26.104;2023-11-21T10:45:36;17.13;;;9.82;;
46158;SDS011;31888;44.512;26.104;2023-11-21T10:48:00;22.13;;;9.65;;
46158;SDS011;31888;44.512;26.104;2023-11-21T10:50:27;18.95;;;10.73;;
46158;SDS011;31888;44.512;26.104;2023-11-21T10:52:51;20.80;;;10.10;;
46158;SDS011;31888;44.512;26.104;2023-11-21T10:55:18;17.48;;;8.43;;
46158;SDS011;31888;44.512;26.104;2023-11-21T10:57:46;14.45;;;8.32;;
46158;SDS011;31888;44.512;26.104;2023-11-21T11:00:13;14.40;;;8.15;;
46158;SDS011;31888;44.512;26.104;2023-11-21T11:02:39;18.30;;;8.60;;
46158;SDS011;31888;44.512;26.104;2023-11-21T11:05:04;11.80;;;7.30;;
46158;SDS011;31888;44.512;26.104;2023-11-21T11:07:33;14.05;;;6.47;;
46158;SDS011;31888;44.512;26.104;2023-11-21T11:10:00;16.35;;;6.78;;
46158;SDS011;31888;44.512;26.104;2023-11-21T11:12:26;17.35;;;6.82;;
46158;SDS011;31888;44.512;26.104;2023-11-21T11:14:50;15.73;;;6.70;;
46158;SDS011;31888;44.512;26.104;2023-11-21T11:17:15;13.75;;;7.28;;
46158;SDS011;31888;44.512;26.104;2023-11-21T11:19:43;17.38;;;6.75;;
46158;SDS011;31888;44.512;26.104;2023-11-21T11:22:09;25.20;;;7.10;;
46158;SDS011;31888;44.512;26.104;2023-11-21T11:24:50;11.52;;;6.38;;
46158;SDS011;31888;44.512;26.104;2023-11-21T11:27:37;15.45;;;6.15;;
46158;SDS011;31888;44.512;26.104;2023-11-21T11:30:14;18.23;;;7.45;;
46158;SDS011;31888;44.512;26.104;2023-11-21T11:32:48;13.65;;;8.20;;
46158;SDS011;31888;44.512;26.104;2023-11-21T11:35:23;15.90;;;8.20;;
46158;SDS011;31888;44.512;26.104;2023-11-21T11:37:57;11.90;;;6.93;;
46158;SDS011;31888;44.512;26.104;2023-11-21T11:40:21;14.18;;;7.30;;
46158;SDS011;31888;44.512;26.104;2023-11-21T11:42:56;21.33;;;7.20;;
46158;SDS011;31888;44.512;26.104;2023-11-21T11:45:21;21.15;;;8.43;;
46158;SDS011;31888;44.512;26.104;2023-11-21T11:47:45;12.00;;;7.05;;
46158;SDS011;31888;44.512;26.104;2023-11-21T11:50:12;19.13;;;8.77;;
46158;SDS011;31888;44.512;26.104;2023-11-21T11:52:40;21.42;;;9.65;;
46158;SDS011;31888;44.512;26.104;2023-11-21T11:55:06;33.72;;;13.15;;
46158;SDS011;31888;44.512;26.104;2023-11-21T11:57:33;29.38;;;14.15;;
46158;SDS011;31888;44.512;26.104;2023-11-21T12:00:12;18.65;;;7.88;;
46158;SDS011;31888;44.512;26.104;2023-11-21T12:02:44;28.85;;;6.75;;
46158;SDS011;31888;44.512;26.104;2023-11-21T12:05:09;13.48;;;6.30;;
46158;SDS011;31888;44.512;26.104;2023-11-21T12:10:23;282.13;;;40.97;;
46158;SDS011;31888;44.512;26.104;2023-11-21T12:12:49;18.10;;;7.57;;
46158;SDS011;31888;44.512;26.104;2023-11-21T12:15:14;22.77;;;7.93;;
46158;SDS011;31888;44.512;26.104;2023-11-21T12:17:39;16.13;;;7.05;;
46158;SDS011;31888;44.512;26.104;2023-11-21T12:20:05;17.95;;;8.10;;
46158;SDS011;31888;44.512;26.104;2023-11-21T12:22:36;17.15;;;7.97;;
46158;SDS011;31888;44.512;26.104;2023-11-21T12:25:02;20.35;;;7.95;;
46158;SDS011;31888;44.512;26.104;2023-11-21T12:27:26;16.63;;;8.18;;
46158;SDS011;31888;44.512;26.104;2023-11-21T12:29:50;19.02;;;8.52;;
46158;SDS011;31888;44.512;26.104;2023-11-21T12:32:15;17.10;;;7.85;;
46158;SDS011;31888;44.512;26.104;2023-11-21T12:34:40;18.90;;;8.25;;
46158;SDS011;31888;44.512;26.104;2023-11-21T12:37:04;17.30;;;8.48;;
46158;SDS011;31888;44.512;26.104;2023-11-21T12:39:28;16.40;;;8.93;;
46158;SDS011;31888;44.512;26.104;2023-11-21T12:41:54;19.75;;;8.77;;
46158;SDS011;31888;44.512;26.104;2023-11-21T12:44:18;20.23;;;8.90;;
46158;SDS011;31888;44.512;26.104;2023-11-21T12:46:45;15.60;;;8.45;;
46158;SDS011;31888;44.512;26.104;2023-11-21T12:49:10;18.33;;;8.43;;
46158;SDS011;31888;44.512;26.104;2023-11-21T12:51:39;13.90;;;7.88;;
46158;SDS011;31888;44.512;26.104;2023-11-21T12:54:03;17.77;;;9.30;;
46158;SDS011;31888;44.512;26.104;2023-11-21T12:56:29;17.17;;;7.60;;
46158;SDS011;31888;44.512;26.104;2023-11-21T12:58:54;16.70;;;8.63;;
46158;SDS011;31888;44.512;26.104;2023-11-21T13:01:19;16.65;;;8.13;;
46158;SDS011;31888;44.512;26.104;2023-11-21T13:03:48;18.38;;;9.63;;
46158;SDS011;31888;44.512;26.104;2023-11-21T13:06:14;16.70;;;7.57;;
46158;SDS011;31888;44.512;26.104;2023-11-21T13:08:38;17.63;;;8.68;;
46158;SDS011;31888;44.512;26.104;2023-11-21T13:11:02;13.13;;;7.60;;
46158;SDS011;31888;44.512;26.104;2023-11-21T13:13:28;20.10;;;8.73;;
46158;SDS011;31888;44.512;26.104;2023-11-21T13:15:55;15.35;;;7.88;;
46158;SDS011;31888;44.512;26.104;2023-11-21T13:18:22;18.92;;;8.85;;
46158;SDS011;31888;44.512;26.104;2023-11-21T13:20:49;19.98;;;8.98;;
46158;SDS011;31888;44.512;26.104;2023-11-21T13:23:13;19.98;;;8.73;;
46158;SDS011;31888;44.512;26.104;2023-11-21T13:25:38;17.80;;;8.93;;
46158;SDS011;31888;44.512;26.104;2023-11-21T13:28:06;24.83;;;9.70;;
46158;SDS011;31888;44.512;26.104;2023-11-21T13:30:33;18.92;;;9.43;;
46158;SDS011;31888;44.512;26.104;2023-11-21T13:32:58;18.13;;;9.52;;
46158;SDS011;31888;44.512;26.104;2023-11-21T13:35:24;19.02;;;8.68;;
46158;SDS011;31888;44.512;26.104;2023-11-21T13:37:54;21.60;;;9.57;;
46158;SDS011;31888;44.512;26.104;2023-11-21T13:40:22;17.45;;;9.10;;
46158;SDS011;31888;44.512;26.104;2023-11-21T13:42:49;16.90;;;8.93;;
46158;SDS011;31888;44.512;26.104;2023-11-21T13:45:15;16.88;;;8.50;;
46158;SDS011;31888;44.512;26.104;2023-11-21T13:47:40;20.15;;;9.73;;
46158;SDS011;31888;44.512;26.104;2023-11-21T13:50:06;17.27;;;9.75;;
46158;SDS011;31888;44.512;26.104;2023-11-21T13:52:39;20.70;;;9.63;;
46158;SDS011;31888;44.512;26.104;2023-11-21T13:55:03;19.33;;;10.05;;
46158;SDS011;31888;44.512;26.104;2023-11-21T13:57:28;20.10;;;10.10;;
46158;SDS011;31888;44.512;26.104;2023-11-21T13:59:53;17.88;;;8.93;;
46158;SDS011;31888;44.512;26.104;2023-11-21T14:02:17;19.42;;;9.93;;
46158;SDS011;31888;44.512;26.104;2023-11-21T14:04:41;26.92;;;10.23;;
46158;SDS011;31888;44.512;26.104;2023-11-21T14:07:18;20.40;;;9.48;;
46158;SDS011;31888;44.512;26.104;2023-11-21T14:09:54;19.10;;;10.15;;